Weather reports worldwide

Advertisment
Salamanca/Matacan, Spain (8202): temperature & dewpoint: 11.07.2019 09:00:00 - 17.07.2019 09:00:00 (CEST)Salamanca/Matacan, Spain (8202): wind speed: 11.07.2019 09:00:00 - 17.07.2019 09:00:00 (CEST)Salamanca/Matacan, Spain (8202): wind direction: 11.07.2019 09:00:00 - 17.07.2019 09:00:00 (CEST)Salamanca/Matacan, Spain (8202): visibility: 11.07.2019 09:00:00 - 17.07.2019 09:00:00 (CEST)
Date & Time tt [°C] td [°C] ff [km/h] ff [kn] dd vv [km]
17.07.2019 09:00:00 18,4 13,7 9 5 NW 10
17.07.2019 08:00:00 14,7 12,4 9 5 WNW 20
17.07.2019 07:00:00 14,6 12,3 0 0 N 10
17.07.2019 06:00:00 14,9 12,6 4 2 - 10
17.07.2019 05:00:00 15,7 12,3 8 4 SW 10
17.07.2019 04:00:00 16,2 12,8 2 1 S 10
17.07.2019 03:00:00 19,0 12,0 5 3 E 10
17.07.2019 02:00:00 20,3 11,8 4 2 E 10
17.07.2019 01:00:00 22,5 11,2 11 6 NE 10
17.07.2019 00:00:00 24,4 10,2 18 10 NE 10
16.07.2019 23:00:00 24,2 10,1 11 6 NNW 10
16.07.2019 22:00:00 25,7 13,9 5 3 N 10
16.07.2019 21:00:00 28,2 15,1 8 4 WNW 10
16.07.2019 20:00:00 31,5 12,6 8 4 SE 10
16.07.2019 19:00:00 34,1 11,1 11 6 E 10
16.07.2019 18:00:00 32,0 10,1 9 5 NNE 10
16.07.2019 17:00:00 32,4 10,0 9 5 NE 10
16.07.2019 16:00:00 33,1 9,5 13 7 NE 10
16.07.2019 15:00:00 31,6 9,9 8 4 N 10
16.07.2019 14:00:00 30,6 9,5 9 5 N 20
16.07.2019 13:00:00 29,7 9,8 11 6 ENE 10
16.07.2019 12:00:00 27,1 8,6 13 7 E 10
16.07.2019 11:00:00 23,3 9,4 5 3 - 10
16.07.2019 10:00:00 21,0 8,1 8 4 ENE 10
16.07.2019 09:00:00 18,4 7,2 13 7 ENE 10
16.07.2019 08:00:00 16,4 6,2 9 5 ENE 10
16.07.2019 07:00:00 15,6 8,1 11 6 E 10
16.07.2019 06:00:00 17,1 9,0 15 8 ENE 10
16.07.2019 05:00:00 17,2 10,1 13 7 ENE 10
16.07.2019 04:00:00 17,2 9,9 9 5 ENE 10
16.07.2019 03:00:00 17,9 9,5 5 3 E 10
16.07.2019 02:00:00 19,4 9,6 9 5 E 10
16.07.2019 01:00:00 19,6 10,2 13 7 E 10
16.07.2019 00:00:00 20,8 10,6 11 6 E 10
15.07.2019 23:00:00 22,3 10,1 8 4 NE 10
15.07.2019 22:00:00 23,8 10,5 9 5 NE 10
15.07.2019 21:00:00 27,5 11,1 9 5 NNE 10
15.07.2019 20:00:00 30,1 9,0 11 6 NNE 20
15.07.2019 19:00:00 31,0 6,2 9 5 N 10
15.07.2019 18:00:00 32,4 6,6 8 4 - 10
15.07.2019 17:00:00 31,4 6,2 8 4 - 10
15.07.2019 16:00:00 30,7 8,5 8 4 - 10
15.07.2019 15:00:00 29,5 9,7 4 2 W 10
15.07.2019 14:00:00 28,0 10,2 9 5 NNE 10
15.07.2019 13:00:00 26,6 11,5 9 5 NE 10
15.07.2019 12:00:00 24,7 10,4 8 4 - 10
15.07.2019 11:00:00 22,2 10,7 8 4 N 10
15.07.2019 10:00:00 20,3 12,0 5 3 NE 10
15.07.2019 09:00:00 17,3 11,6 2 1 - 10
15.07.2019 08:00:00 14,4 12,4 0 0 N 20
15.07.2019 07:00:00 13,7 11,9 0 0 N 10
15.07.2019 06:00:00 14,4 12,1 4 2 ENE 10
15.07.2019 05:00:00 15,8 11,2 4 2 SE 10
15.07.2019 04:00:00 16,5 12,8 2 1 - 10
15.07.2019 03:00:00 16,7 13,4 4 2 - 10
15.07.2019 02:00:00 17,0 13,7 8 4 N 10
15.07.2019 01:00:00 18,2 14,7 5 3 WNW 10
15.07.2019 00:00:00 19,7 15,5 0 0 N 10
14.07.2019 23:00:00 21,6 16,2 0 0 N 10
14.07.2019 22:00:00 25,2 15,4 5 3 ENE 10
14.07.2019 21:00:00 28,4 13,7 8 4 N 10
14.07.2019 20:00:00 29,7 12,6 8 4 N 10
14.07.2019 19:00:00 30,7 13,3 9 5 N 10
14.07.2019 18:00:00 30,2 13,6 5 3 NNE 10
14.07.2019 17:00:00 29,4 12,2 8 4 N 10
14.07.2019 16:00:00 28,9 13,7 5 3 - 10
14.07.2019 15:00:00 28,1 13,9 9 5 N 10
14.07.2019 14:00:00 26,8 14,1 9 5 N 20
14.07.2019 13:00:00 25,3 14,2 9 5 - 10
14.07.2019 12:00:00 23,1 15,3 8 4 ENE 10
14.07.2019 11:00:00 21,6 15,2 8 4 ESE 15
14.07.2019 10:00:00 20,1 15,2 4 2 SE 10
14.07.2019 09:00:00 16,9 14,5 2 1 - 10
14.07.2019 08:00:00 14,4 13,1 4 2 SSE 10
14.07.2019 07:00:00 13,2 12,3 0 0 N 10
14.07.2019 06:00:00 13,6 12,7 4 2 - 10
14.07.2019 05:00:00 13,8 12,9 8 4 WNW 10
14.07.2019 04:00:00 14,6 13,1 8 4 W 10
14.07.2019 03:00:00 15,0 13,2 5 3 WNW 10
14.07.2019 02:00:00 16,0 13,7 8 4 WNW 10
14.07.2019 01:00:00 17,6 13,9 8 4 WSW 10
14.07.2019 00:00:00 18,8 13,3 15 8 E 10
13.07.2019 23:00:00 18,3 15,2 8 4 NE 10
13.07.2019 22:00:00 18,4 15,6 18 10 NW 10
13.07.2019 21:00:00 22,9 15,0 16 9 NW 8
13.07.2019 20:00:00 26,3 12,8 16 9 N 15
13.07.2019 19:00:00 29,8 13,8 9 5 NNW 10
13.07.2019 18:00:00 29,6 14,5 21 11 NNE 10
13.07.2019 17:00:00 29,0 14,5 15 8 NW 10
13.07.2019 16:00:00 34,4 12,0 16 9 - 10
13.07.2019 15:00:00 32,1 13,8 5 3 - 10
13.07.2019 14:00:00 31,3 14,4 5 3 - 10
13.07.2019 13:00:00 30,9 12,3 9 5 E 10
13.07.2019 12:00:00 29,9 12,9 8 4 N 10
13.07.2019 11:00:00 28,2 15,9 5 3 WNW 10
13.07.2019 10:00:00 24,3 16,4 2 1 - 10
13.07.2019 09:00:00 19,3 14,8 2 1 - 10
13.07.2019 08:00:00 17,4 13,8 2 1 - 10
13.07.2019 07:00:00 19,7 13,5 5 3 - 10
13.07.2019 06:00:00 18,6 14,5 8 4 S 10
13.07.2019 05:00:00 18,8 15,5 4 2 NE 10
13.07.2019 04:00:00 19,7 14,8 4 2 - 10
13.07.2019 03:00:00 20,2 15,2 0 0 N 10
13.07.2019 02:00:00 21,2 14,8 9 5 ESE 10
13.07.2019 01:00:00 23,7 14,3 4 2 S 10
13.07.2019 00:00:00 25,5 12,5 2 1 - 10
12.07.2019 23:00:00 27,0 13,0 8 4 NW 10
12.07.2019 22:00:00 29,3 12,7 24 13 W 10
12.07.2019 21:00:00 32,0 9,5 9 5 SSW 10
12.07.2019 20:00:00 32,5 12,9 13 7 S 10
12.07.2019 19:00:00 35,5 14,6 8 4 E 10
12.07.2019 18:00:00 37,4 8,1 8 4 ENE 10
12.07.2019 17:00:00 37,4 8,2 4 2 NW 20
12.07.2019 16:00:00 36,6 7,8 9 5 ENE 10
12.07.2019 15:00:00 35,9 8,0 11 6 NE 10
12.07.2019 14:00:00 34,7 9,9 8 4 ENE 10
12.07.2019 13:00:00 32,9 12,5 5 3 E 10
12.07.2019 12:00:00 30,8 12,5 8 4 E 10
12.07.2019 11:00:00 27,3 11,3 5 3 E 20
12.07.2019 10:00:00 22,9 12,2 5 3 E 10
12.07.2019 09:00:00 19,2 11,2 4 2 E 10
12.07.2019 08:00:00 15,0 11,6 5 3 S 10
12.07.2019 07:00:00 13,4 11,6 4 2 ESE 10
12.07.2019 06:00:00 13,6 11,2 2 1 - 10
12.07.2019 05:00:00 14,3 12,7 5 3 NNW 10
12.07.2019 04:00:00 15,5 13,5 5 3 N 10
12.07.2019 03:00:00 17,3 14,0 4 2 S 10
12.07.2019 02:00:00 17,8 13,9 0 0 N 10
12.07.2019 01:00:00 19,0 14,9 4 2 E 10
12.07.2019 00:00:00 21,4 13,3 2 1 - 10
11.07.2019 23:00:00 23,3 15,9 5 3 NNW 10
11.07.2019 22:00:00 25,7 17,7 4 2 NNW 10
11.07.2019 21:00:00 34,0 12,2 4 2 E 10
11.07.2019 20:00:00 34,4 11,5 9 5 ESE 20
11.07.2019 19:00:00 34,9 7,1 8 4 ENE 10
11.07.2019 18:00:00 34,5 8,1 8 4 ENE 10
11.07.2019 17:00:00 33,8 8,1 8 4 N 20
11.07.2019 16:00:00 33,4 10,9 8 4 W 10
11.07.2019 15:00:00 32,6 7,2 5 3 - 10
11.07.2019 14:00:00 31,3 8,0 5 3 - 10
11.07.2019 13:00:00 31,0 8,8 8 4 E 10
11.07.2019 12:00:00 28,4 12,7 5 3 E 10
11.07.2019 11:00:00 25,3 12,7 8 4 E 20
11.07.2019 10:00:00 21,5 11,4 4 2 - 10
11.07.2019 09:00:00 18,3 9,0 4 2 - 10

tt = temperature
td = dewpoint
ff = wind speed
dd = wind direction
vv = visibility

Next stations